Time;durP1;ratioP1;P1;durP2;ratioP2;P2;SDS_P1;SDS_P2;PMS_P1;PMS_P2;Temp;Humidity;BMP_temperature;BMP_pressure;BME280_temperature;BME280_humidity;BME280_pressure;Samples;Min_cycle;Max_cycle;Signal;HPM_P1;HPM_P2
2023/01/05 06:43:53;;;;;;;;;0.00;0.00;;;;;12.21;100.00;102331.66;5075680;27;51071;-74
2023/01/05 06:46:18;;;;;;;;;0.00;0.00;;;;;12.40;100.00;102327.97;5066252;27;49920;-73
2023/01/05 06:48:44;;;;;;;;;3.00;1.50;;;;;11.17;100.00;102114.41;5066085;27;50010;-74
2023/01/05 06:51:09;;;;;;;;;0.50;0.00;;;;;12.66;100.00;102342.16;5066306;27;50609;-82
2023/01/05 06:53:34;;;;;;;;;0.00;0.00;;;;;12.73;100.00;102352.94;5066985;27;49949;-80
2023/01/05 06:55:59;;;;;;;;;0.00;0.00;;;;;12.79;100.00;102361.09;5066133;27;49605;-74
2023/01/05 06:58:25;;;;;;;;;1.25;0.00;;;;;12.69;100.00;102331.72;5066991;27;49813;-71
2023/01/05 07:00:53;;;;;;;;;0.25;0.25;;;;;12.89;100.00;102359.69;5065678;27;50792;-73
2023/01/05 07:03:18;;;;;;;;;2.00;0.00;;;;;12.46;100.00;102272.91;5062288;27;49955;-76
2023/01/05 07:05:44;;;;;;;;;1.00;0.50;;;;;12.92;100.00;102333.44;5063616;27;50330;-85
2023/01/05 07:08:09;;;;;;;;;0.00;0.00;;;;;12.75;100.00;102305.59;5064145;27;49974;-77
2023/01/05 07:10:34;;;;;;;;;0.00;0.00;;;;;12.81;100.00;102325.16;5059634;28;49666;-77
2023/01/05 07:13:00;;;;;;;;;1.00;1.00;;;;;12.98;100.00;102323.13;5068123;27;49809;-76
2023/01/05 07:15:25;;;;;;;;;0.00;0.00;;;;;12.08;100.00;102188.13;5052195;28;50020;-77
2023/01/05 07:17:50;;;;;;;;;0.00;0.00;;;;;12.68;100.00;102264.06;5054679;27;50188;-75
2023/01/05 07:20:15;;;;;;;;;0.00;0.00;;;;;12.06;100.00;102154.66;5056850;27;66217;-79
2023/01/05 07:22:41;;;;;;;;;1.00;1.00;;;;;12.48;100.00;102237.88;5054444;27;49850;-78
2023/01/05 07:25:10;;;;;;;;;0.75;0.75;;;;;12.65;100.00;102245.50;5054878;27;49992;-89
2023/01/05 07:27:35;;;;;;;;;1.00;1.00;;;;;13.33;100.00;102363.97;5053009;28;50037;-77
2023/01/05 07:30:01;;;;;;;;;0.25;0.25;;;;;12.21;100.00;102171.03;5049942;27;49909;-78
2023/01/05 07:32:26;;;;;;;;;0.00;0.00;;;;;11.96;100.00;102125.38;5048799;27;49908;-77
2023/01/05 07:34:51;;;;;;;;;0.00;0.00;;;;;13.38;100.00;102364.13;5050235;27;50626;-78
2023/01/05 07:37:16;;;;;;;;;0.00;0.00;;;;;12.23;100.00;102186.03;5053716;27;50355;-75
2023/01/05 07:39:42;;;;;;;;;0.00;0.00;;;;;12.80;100.00;102246.03;5051357;28;68312;-74
2023/01/05 07:42:07;;;;;;;;;0.50;0.00;;;;;13.19;100.00;102312.47;5055368;27;49991;-76
2023/01/05 07:44:33;;;;;;;;;0.00;0.00;;;;;13.30;100.00;102328.66;5025129;27;50850;-76
2023/01/05 07:46:58;;;;;;;;;0.00;0.00;;;;;13.26;100.00;102316.22;5040225;28;51266;-75
2023/01/05 07:49:23;;;;;;;;;0.00;0.00;;;;;13.54;100.00;102365.56;5042475;28;51145;-75
2023/01/05 07:51:49;;;;;;;;;0.00;0.00;;;;;12.91;100.00;102255.22;5042656;28;49899;-75
2023/01/05 07:54:14;;;;;;;;;1.50;0.50;;;;;13.05;100.00;102285.59;5046074;28;50281;-75
2023/01/05 07:56:39;;;;;;;;;0.00;0.00;;;;;12.51;100.00;102200.22;5048366;28;49803;-75
2023/01/05 07:59:05;;;;;;;;;0.50;0.25;;;;;12.81;100.00;102250.47;5050175;28;49677;-75
2023/01/05 08:01:30;;;;;;;;;1.00;1.00;;;;;12.33;100.00;102151.31;5050961;28;50747;-73
2023/01/05 08:03:55;;;;;;;;;0.00;0.00;;;;;13.45;100.00;102345.91;5049822;28;49720;-75
2023/01/05 08:06:21;;;;;;;;;0.00;0.00;;;;;13.17;100.00;102295.66;5053222;28;49974;-75
2023/01/05 08:08:46;;;;;;;;;0.00;0.00;;;;;12.52;100.00;102167.75;5063102;28;50025;-74
2023/01/05 08:11:14;;;;;;;;;0.25;0.25;;;;;13.10;100.00;102276.09;5060220;28;49656;-75
2023/01/05 08:13:58;;;;;;;;;0.00;0.00;;;;;13.22;100.00;102303.75;5053674;28;49655;-76
2023/01/05 08:16:28;;;;;;;;;0.00;0.00;;;;;12.87;100.00;102224.34;5064965;28;50044;-74
2023/01/05 08:18:53;;;;;;;;;2.50;1.25;;;;;13.71;100.00;102354.72;5066689;27;49950;-73
2023/01/05 08:21:19;;;;;;;;;1.75;1.75;;;;;13.75;100.00;102377.72;5069009;27;49408;-72
2023/01/05 08:23:49;;;;;;;;;1.00;1.00;;;;;13.90;100.00;102373.81;5058973;28;50320;-72
2023/01/05 08:26:17;;;;;;;;;0.00;0.00;;;;;13.83;100.00;102356.88;5061627;28;49834;-76
2023/01/05 08:28:43;;;;;;;;;1.00;1.00;;;;;13.71;100.00;102340.63;5055277;28;50970;-77
2023/01/05 08:31:15;;;;;;;;;2.00;1.00;;;;;13.41;100.00;102280.72;5059622;28;50620;-77
2023/01/05 08:33:41;;;;;;;;;1.00;1.00;;;;;12.75;100.00;102182.66;5051115;28;49850;-77
2023/01/05 08:36:12;;;;;;;;;2.00;1.00;;;;;13.26;100.00;102243.28;5061924;28;49803;-77
2023/01/05 08:38:37;;;;;;;;;1.00;1.00;;;;;12.75;100.00;102165.94;5059512;28;49765;-77
2023/01/05 08:41:03;;;;;;;;;1.25;1.25;;;;;13.15;100.00;102231.44;5049201;28;49712;-77
2023/01/05 08:43:29;;;;;;;;;3.00;1.50;;;;;13.38;100.00;102238.41;5049717;28;50229;-77
2023/01/05 08:45:54;;;;;;;;;3.00;3.00;;;;;14.18;100.00;102371.19;5051396;28;49884;-77
2023/01/05 08:48:20;;;;;;;;;1.00;1.00;;;;;13.09;100.00;102192.56;5050290;28;50029;-77
2023/01/05 08:50:45;;;;;;;;;1.00;1.00;;;;;13.56;100.00;102245.13;5051293;28;49681;-77
2023/01/05 08:53:11;;;;;;;;;1.75;1.75;;;;;14.24;100.00;102370.50;5051457;28;49831;-77
2023/01/05 08:55:36;;;;;;;;;1.00;1.00;;;;;14.31;100.00;102380.41;5049828;28;50041;-77
2023/01/05 08:58:02;;;;;;;;;1.00;1.00;;;;;13.95;100.00;102303.56;5049379;28;58984;-74
2023/01/05 09:00:27;;;;;;;;;1.25;0.25;;;;;14.31;100.00;102356.63;5050525;28;50218;-77
2023/01/05 09:02:53;;;;;;;;;1.75;0.75;;;;;13.41;100.00;102214.78;5050836;28;50298;-77
2023/01/05 09:05:18;;;;;;;;;1.75;0.25;;;;;14.43;100.00;102396.63;5050828;28;50042;-77
2023/01/05 09:07:43;;;;;;;;;0.00;0.00;;;;;13.46;100.00;102192.06;5050450;28;53794;-78
2023/01/05 09:10:09;;;;;;;;;0.00;0.00;;;;;13.68;100.00;102253.44;5050833;28;49776;-77
2023/01/05 09:12:36;;;;;;;;;1.00;1.00;;;;;14.35;100.00;102320.63;5050588;28;49957;-77
2023/01/05 09:15:02;;;;;;;;;1.00;0.00;;;;;13.68;100.00;102196.25;5050593;28;49831;-77
2023/01/05 09:17:28;;;;;;;;;0.75;0.75;;;;;14.00;100.00;102281.75;5050082;28;50521;-77
2023/01/05 09:19:53;;;;;;;;;0.00;0.00;;;;;14.73;100.00;102370.25;5050461;28;49994;-76
2023/01/05 09:22:19;;;;;;;;;0.75;0.75;;;;;14.02;100.00;102243.06;5050316;28;49772;-77
2023/01/05 09:24:45;;;;;;;;;0.00;0.00;;;;;14.56;100.00;102327.47;5050584;28;49752;-77
2023/01/05 09:27:10;;;;;;;;;0.50;0.50;;;;;14.88;100.00;102368.06;5050112;28;49927;-77
2023/01/05 09:29:35;;;;;;;;;0.00;0.00;;;;;14.70;100.00;102342.84;5050690;28;50023;-77
2023/01/05 09:32:01;;;;;;;;;0.00;0.00;;;;;14.53;100.00;102340.59;5050560;28;49900;-77
2023/01/05 09:34:26;;;;;;;;;0.00;0.00;;;;;14.97;100.00;102385.97;5051030;28;50099;-76
2023/01/05 09:36:52;;;;;;;;;0.00;0.00;;;;;14.55;100.00;102330.06;5050212;28;50392;-77
2023/01/05 09:39:17;;;;;;;;;0.50;0.25;;;;;14.51;100.00;102302.69;5049008;28;49834;-77
2023/01/05 09:41:46;;;;;;;;;1.00;1.00;;;;;14.32;100.00;102266.84;5050423;28;49850;-77
2023/01/05 09:44:26;;;;;;;;;0.00;0.00;;;;;15.09;100.00;102374.81;5050835;28;49828;-77
2023/01/05 09:46:55;;;;;;;;;0.25;0.25;;;;;14.61;100.00;102306.47;5050286;28;50387;-77
2023/01/05 09:49:23;;;;;;;;;0.00;0.00;;;;;14.16;100.00;102232.91;5050127;28;49118;-77
2023/01/05 09:51:57;;;;;;;;;0.75;0.75;;;;;14.56;100.00;102297.50;5050615;28;49810;-77
2023/01/05 09:54:27;;;;;;;;;1.00;1.00;;;;;15.16;100.00;102396.22;5049665;28;49874;-77
2023/01/05 09:56:54;;;;;;;;;0.00;0.00;;;;;15.17;100.00;102381.22;5049264;28;49716;-77
2023/01/05 09:59:26;;;;;;;;;1.00;1.00;;;;;14.51;100.00;102262.16;5050055;28;49798;-77
2023/01/05 10:01:54;;;;;;;;;2.00;1.00;;;;;13.98;100.00;102182.19;5044037;28;49769;-77
2023/01/05 10:04:23;;;;;;;;;1.00;0.25;;;;;14.37;100.00;102224.72;5044292;28;49968;-77
2023/01/05 10:06:53;;;;;;;;;2.00;0.75;;;;;14.62;100.00;102255.41;5043449;28;50557;-77
2023/01/05 10:09:22;;;;;;;;;1.00;1.00;;;;;14.45;100.00;102257.56;5044286;28;49644;-77
2023/01/05 10:14:53;;;;;;;;;0.25;0.25;;;;;15.37;100.00;102393.25;5050024;28;49850;-77
2023/01/05 10:17:21;;;;;;;;;0.00;0.00;;;;;15.36;100.00;102387.91;5049873;28;50011;-77
2023/01/05 10:19:48;;;;;;;;;0.00;0.00;;;;;14.16;100.00;102201.22;5047213;28;50084;-77
2023/01/05 10:22:32;;;;;;;;;0.00;0.00;;;;;14.19;100.00;102184.59;5050314;28;50101;-77
2023/01/05 10:25:27;;;;;;;;;0.00;0.00;;;;;15.27;100.00;102372.69;5043862;28;49809;-77
2023/01/05 10:28:27;;;;;;;;;0.00;0.00;;;;;15.47;100.00;102386.44;5033695;28;52697;-76
2023/01/05 10:31:01;;;;;;;;;0.00;0.00;;;;;14.92;100.00;102288.81;5011042;28;50057;-76
2023/01/05 10:33:48;;;;;;;;;0.50;0.50;;;;;14.67;100.00;102234.38;5049812;28;49712;-76
2023/01/05 10:36:16;;;;;;;;;1.00;1.00;;;;;15.54;100.00;102382.19;5050008;28;50160;-76
2023/01/05 10:38:53;;;;;;;;;0.00;0.00;;;;;15.30;100.00;102327.78;5049777;28;51053;-75
2023/01/05 10:41:41;;;;;;;;;0.00;0.00;;;;;15.67;100.00;102379.06;5049315;28;49690;-74
2023/01/05 10:44:33;;;;;;;;;0.00;0.00;;;;;15.71;100.00;102373.88;5044983;28;49574;-76
2023/01/05 10:46:59;;;;;;;;;0.25;0.25;;;;;14.78;100.00;102215.34;5049938;28;50242;-76
2023/01/05 10:49:28;;;;;;;;;1.00;1.00;;;;;15.83;100.00;102364.47;5047918;28;52084;-76
2023/01/05 10:51:58;;;;;;;;;0.00;0.00;;;;;15.84;100.00;102366.25;5049757;28;50406;-76
2023/01/05 10:54:46;;;;;;;;;0.25;0.25;;;;;15.84;100.00;102343.31;5048231;28;49771;-76
2023/01/05 10:57:37;;;;;;;;;0.00;0.00;;;;;15.96;100.00;102356.84;5044982;28;49812;-75
2023/01/05 11:00:06;;;;;;;;;0.00;0.00;;;;;16.04;100.00;102354.38;5048634;28;50526;-75
2023/01/05 11:02:34;;;;;;;;;1.00;0.00;;;;;16.08;100.00;102348.28;5049136;28;49910;-75
2023/01/05 11:05:24;;;;;;;;;0.00;0.00;;;;;14.73;100.00;102115.59;5049384;28;49920;-76
2023/01/05 11:07:56;;;;;;;;;1.00;1.00;;;;;16.11;100.00;102348.34;5044429;28;49949;-76
2023/01/05 11:10:32;;;;;;;;;0.00;0.00;;;;;16.05;100.00;102344.69;5049088;28;50964;-76
2023/01/05 11:13:03;;;;;;;;;0.00;0.00;;;;;14.60;100.00;102107.38;5050646;28;49795;-73
2023/01/05 11:15:41;;;;;;;;;0.00;0.00;;;;;15.99;100.00;102330.41;5052933;28;49772;-71
2023/01/05 11:18:35;;;;;;;;;1.00;1.00;;;;;16.13;100.00;102337.81;5053242;28;50022;-71
2023/01/05 11:21:05;;;;;;;;;0.00;0.00;;;;;16.15;100.00;102326.38;5052216;28;50009;-73
2023/01/05 11:23:37;;;;;;;;;1.75;0.75;;;;;16.09;100.00;102318.28;5052891;28;49789;-71
2023/01/05 11:26:17;;;;;;;;;0.50;0.50;;;;;16.17;100.00;102329.94;5052530;28;50242;-71
2023/01/05 11:29:06;;;;;;;;;1.00;1.00;;;;;16.20;100.00;102337.97;5052727;28;50106;-71
2023/01/05 11:31:36;;;;;;;;;1.00;1.00;;;;;16.23;100.00;102329.22;5052273;28;49744;-70
2023/01/05 11:34:12;;;;;;;;;2.00;2.00;;;;;15.02;100.00;102146.31;5052169;28;49708;-72
2023/01/05 11:36:39;;;;;;;;;0.75;0.75;;;;;15.85;100.00;102292.13;5047519;28;49146;-71
2023/01/05 11:39:05;;;;;;;;;2.00;2.00;;;;;16.03;100.00;102319.06;5052651;28;50216;-71
2023/01/05 11:41:31;;;;;;;;;2.00;2.00;;;;;15.88;100.00;102291.31;5052634;28;49869;-71
2023/01/05 11:43:59;;;;;;;;;2.50;2.50;;;;;15.90;100.00;102301.06;5051911;28;50086;-71
2023/01/05 11:46:25;;;;;;;;;0.50;0.50;;;;;15.86;100.00;102304.50;5051811;28;49871;-71
2023/01/05 11:48:56;;;;;;;;;1.00;1.00;;;;;14.67;100.00;102118.06;5051728;28;50134;-72
2023/01/05 11:51:34;;;;;;;;;2.33;0.00;;;;;15.96;100.00;102322.41;5060344;28;50776;-72
2023/01/05 11:54:00;;;;;;;;;0.50;0.00;;;;;15.91;100.00;102328.44;5051618;28;49835;-72
2023/01/05 11:56:26;;;;;;;;;0.75;0.75;;;;;15.92;100.00;102315.25;5051907;28;49857;-72
2023/01/05 11:58:53;;;;;;;;;0.00;0.00;;;;;15.91;100.00;102317.84;5052533;28;49765;-72
2023/01/05 12:01:40;;;;;;;;;0.00;0.00;;;;;15.71;100.00;102278.56;5051887;28;50773;-72
2023/01/05 12:04:31;;;;;;;;;1.00;1.00;;;;;15.82;100.00;102305.28;5050339;28;49930;-72
2023/01/05 12:07:12;;;;;;;;;0.00;0.00;;;;;15.78;100.00;102307.84;5045702;28;49665;-72
2023/01/05 12:09:43;;;;;;;;;2.00;1.00;;;;;15.77;100.00;102301.66;5047757;28;49960;-73
2023/01/05 12:12:14;;;;;;;;;0.00;0.00;;;;;15.78;100.00;102300.78;5051947;28;50004;-72
2023/01/05 12:14:54;;;;;;;;;1.75;0.75;;;;;15.79;100.00;102305.22;5051914;28;49738;-72
2023/01/05 12:17:31;;;;;;;;;1.00;0.00;;;;;15.70;100.00;102279.41;5051863;28;49779;-72
2023/01/05 12:20:21;;;;;;;;;0.50;0.50;;;;;15.38;100.00;102240.66;5051367;28;50101;-72
2023/01/05 12:23:23;;;;;;;;;0.00;0.00;;;;;15.58;100.00;102265.84;5046800;28;49793;-72
2023/01/05 12:26:00;;;;;;;;;0.00;0.00;;;;;15.74;100.00;102294.53;5019877;28;50035;-72
2023/01/05 12:28:42;;;;;;;;;0.00;0.00;;;;;15.73;100.00;102295.41;5050552;28;50119;-72
2023/01/05 12:31:35;;;;;;;;;0.00;0.00;;;;;15.75;100.00;102292.78;5051688;28;49893;-72
2023/01/05 12:34:34;;;;;;;;;0.00;0.00;;;;;15.75;100.00;102282.19;5051052;28;50742;-72
2023/01/05 12:37:05;;;;;;;;;0.00;0.00;;;;;15.70;100.00;102281.16;5051285;28;49841;-72
2023/01/05 12:39:55;;;;;;;;;0.50;0.50;;;;;15.68;100.00;102277.59;5049689;28;50054;-72
2023/01/05 12:42:42;;;;;;;;;1.00;1.00;;;;;15.70;100.00;102286.47;5051285;28;50116;-72
2023/01/05 12:45:22;;;;;;;;;0.00;0.00;;;;;15.42;100.00;102235.47;5051299;28;50713;-72
2023/01/05 12:47:58;;;;;;;;;1.00;1.00;;;;;15.64;100.00;102275.75;5051513;28;49917;-72
2023/01/05 12:50:46;;;;;;;;;0.00;0.00;;;;;15.60;100.00;102277.41;5051305;28;50022;-72
2023/01/05 12:53:16;;;;;;;;;0.00;0.00;;;;;15.58;100.00;102276.44;5051516;28;49736;-71
2023/01/05 12:55:47;;;;;;;;;0.50;0.00;;;;;15.63;100.00;102279.22;5050815;28;49803;-72
2023/01/05 12:58:28;;;;;;;;;0.00;0.00;;;;;15.61;100.00;102273.00;5051113;28;49877;-71
2023/01/05 13:00:56;;;;;;;;;0.00;0.00;;;;;15.00;100.00;102163.00;5051152;28;50036;-71
2023/01/05 13:03:29;;;;;;;;;0.00;0.00;;;;;15.66;100.00;102261.69;5051366;28;49980;-72
2023/01/05 13:06:19;;;;;;;;;0.00;0.00;;;;;15.67;100.00;102260.81;5050367;28;50736;-72
2023/01/05 13:08:54;;;;;;;;;0.00;0.00;;;;;15.37;100.00;102218.59;5049270;28;49962;-72
2023/01/05 13:11:30;;;;;;;;;0.00;0.00;;;;;15.61;100.00;102249.19;5051045;28;49692;-72
2023/01/05 13:14:04;;;;;;;;;0.00;0.00;;;;;15.38;100.00;102200.97;5051080;28;49856;-72
2023/01/05 13:16:38;;;;;;;;;0.00;0.00;;;;;15.59;100.00;102250.88;5050456;28;49819;-73
2023/01/05 13:19:19;;;;;;;;;0.00;0.00;;;;;15.75;100.00;102258.38;5050344;28;49617;-73
2023/01/05 13:21:46;;;;;;;;;1.00;0.00;;;;;15.16;100.00;102160.78;5044681;28;49894;-72
2023/01/05 13:24:21;;;;;;;;;0.75;0.00;;;;;15.18;100.00;102135.25;5051244;28;49734;-72
2023/01/05 13:26:47;;;;;;;;;0.00;0.00;;;;;15.65;100.00;102219.28;5045205;28;49964;-73
2023/01/05 13:29:23;;;;;;;;;0.00;0.00;;;;;15.83;100.00;102246.19;5050677;28;49857;-73
2023/01/05 13:32:15;;;;;;;;;0.00;0.00;;;;;15.85;100.00;102248.88;5050691;28;49839;-73
2023/01/05 13:34:40;;;;;;;;;0.00;0.00;;;;;15.87;100.00;102247.16;5050465;28;49775;-73
2023/01/05 13:37:11;;;;;;;;;0.00;0.00;;;;;15.88;100.00;102236.59;5050369;28;52253;-73
2023/01/05 13:39:51;;;;;;;;;0.00;0.00;;;;;15.90;100.00;102240.16;5050516;28;49861;-72
2023/01/05 13:42:46;;;;;;;;;1.00;1.00;;;;;15.93;100.00;102231.41;5048342;28;49742;-69
2023/01/05 13:45:30;;;;;;;;;0.00;0.00;;;;;15.93;100.00;102234.94;5050961;28;49954;-69
2023/01/05 13:48:04;;;;;;;;;0.00;0.00;;;;;15.93;100.00;102234.06;5043764;28;49800;-71
2023/01/05 13:50:51;;;;;;;;;1.00;0.00;;;;;15.82;100.00;102254.97;5048794;28;50026;-73
2023/01/05 13:53:21;;;;;;;;;0.75;0.75;;;;;15.64;100.00;102236.94;5050253;28;49932;-74
2023/01/05 13:55:55;;;;;;;;;0.00;0.00;;;;;15.68;100.00;102259.06;5050293;28;49609;-71
2023/01/05 13:58:28;;;;;;;;;0.00;0.00;;;;;15.53;100.00;102242.78;5050171;28;51028;-74
2023/01/05 14:00:54;;;;;;;;;0.00;0.00;;;;;14.51;100.00;102099.22;5048793;28;49751;-75
2023/01/05 14:03:40;;;;;;;;;0.00;0.00;;;;;15.58;100.00;102249.97;5048739;28;49814;-74
2023/01/05 14:06:16;;;;;;;;;0.00;0.00;;;;;15.61;100.00;102252.72;5050371;28;49972;-74
2023/01/05 14:08:49;;;;;;;;;0.50;0.50;;;;;15.23;100.00;102176.78;5049949;28;51047;-75
2023/01/05 14:11:22;;;;;;;;;0.00;0.00;;;;;15.43;100.00;102225.78;5050176;28;49821;-75
2023/01/05 14:13:51;;;;;;;;;0.50;0.50;;;;;15.74;100.00;102244.22;5049465;28;49770;-75
2023/01/05 14:16:34;;;;;;;;;1.00;1.00;;;;;15.73;100.00;102250.38;5048954;28;50060;-75
2023/01/05 14:19:09;;;;;;;;;0.00;0.00;;;;;15.73;100.00;102239.78;5049395;28;50643;-75
2023/01/05 14:21:49;;;;;;;;;0.50;0.00;;;;;15.69;100.00;102245.84;5043782;28;49925;-75
2023/01/05 14:24:41;;;;;;;;;0.00;0.00;;;;;15.66;100.00;102247.56;5049902;28;49965;-74
2023/01/05 14:27:23;;;;;;;;;0.00;0.00;;;;;15.51;100.00;102220.66;5042571;28;49786;-75
2023/01/05 14:29:48;;;;;;;;;0.00;0.00;;;;;15.60;100.00;102243.00;5049544;28;50039;-75
2023/01/05 14:32:27;;;;;;;;;0.00;0.00;;;;;15.35;100.00;102214.13;5043186;28;49714;-75
2023/01/05 14:35:08;;;;;;;;;0.00;0.00;;;;;15.45;100.00;102219.69;5044532;28;49900;-75
2023/01/05 14:37:39;;;;;;;;;1.00;1.00;;;;;15.63;100.00;102247.47;5050016;28;50011;-75
2023/01/05 14:40:38;;;;;;;;;0.00;0.00;;;;;15.58;100.00;102247.34;5049150;28;50375;-75
2023/01/05 14:43:22;;;;;;;;;0.00;0.00;;;;;14.15;100.00;102011.94;5037618;28;49928;-75
2023/01/05 14:46:08;;;;;;;;;1.00;0.00;;;;;15.56;100.00;102253.47;5048567;28;49712;-76
2023/01/05 14:49:17;;;;;;;;;3.00;1.75;;;;;14.35;100.00;102033.56;5049482;28;50083;-76
2023/01/05 14:51:52;;;;;;;;;1.75;1.00;;;;;14.24;100.00;102022.72;4968529;28;52595;-76
2023/01/05 14:54:55;;;;;;;;;1.00;1.00;;;;;14.96;100.00;102139.97;5045432;28;49940;-75
2023/01/05 14:57:24;;;;;;;;;1.00;1.00;;;;;15.58;100.00;102241.16;5050638;28;50001;-75
2023/01/05 15:00:12;;;;;;;;;4.00;1.00;;;;;14.96;100.00;102164.69;5051943;28;50041;-75
2023/01/05 15:03:10;;;;;;;;;2.50;2.50;;;;;15.57;100.00;102245.53;5046129;28;50667;-75
2023/01/05 15:06:05;;;;;;;;;4.00;3.00;;;;;14.67;100.00;102089.00;5050328;28;49950;-75
2023/01/05 15:09:07;;;;;;;;;3.00;3.00;;;;;15.54;100.00;102244.56;5047309;28;49785;-75
2023/01/05 15:12:03;;;;;;;;;3.50;3.50;;;;;15.37;100.00;102209.78;5053013;28;50686;-75
2023/01/05 15:15:00;;;;;;;;;3.00;3.00;;;;;14.81;100.00;102114.06;5052668;28;49885;-75
2023/01/05 15:17:52;;;;;;;;;4.50;4.50;;;;;15.58;100.00;102238.50;5052056;28;49824;-73
2023/01/05 15:20:30;;;;;;;;;3.00;3.00;;;;;15.56;100.00;102229.63;5052313;28;49773;-75
2023/01/05 15:23:34;;;;;;;;;2.00;2.00;;;;;14.21;100.00;101998.91;5052865;28;49863;-75
2023/01/05 15:26:26;;;;;;;;;2.00;2.00;;;;;15.50;100.00;102232.13;5049353;28;49785;-75
2023/01/05 15:29:29;;;;;;;;;3.00;2.00;;;;;15.52;100.00;102233.94;5051481;28;49885;-75
2023/01/05 15:32:20;;;;;;;;;1.75;1.75;;;;;15.47;100.00;102232.94;5051115;28;49600;-75
2023/01/05 15:35:02;;;;;;;;;2.50;0.75;;;;;15.42;100.00;102234.56;5052720;28;50140;-73
2023/01/05 15:37:34;;;;;;;;;2.00;2.00;;;;;15.25;100.00;102212.09;5060324;22;51624;-73
2023/01/05 15:40:02;;;;;;;;;1.50;1.00;;;;;15.34;100.00;102239.66;5030892;28;49986;-75
2023/01/05 15:42:42;;;;;;;;;3.00;2.00;;;;;15.11;100.00;102201.19;5032532;28;49794;-74
2023/01/05 15:45:18;;;;;;;;;8.00;8.00;;;;;14.88;100.00;102177.69;5031327;28;50024;-73
2023/01/05 15:47:45;;;;;;;;;5.00;5.00;;;;;14.88;100.00;102184.75;5032340;28;51170;-73
2023/01/05 15:50:23;;;;;;;;;7.00;5.00;;;;;14.94;100.00;102223.66;5031102;28;50025;-75
2023/01/05 15:52:57;;;;;;;;;1.00;1.00;;;;;14.64;100.00;102155.91;5032439;28;49676;-76
2023/01/05 15:55:24;;;;;;;;;0.00;0.00;;;;;14.60;100.00;102161.97;5032500;28;49845;-75
2023/01/05 15:57:59;;;;;;;;;1.75;0.00;;;;;14.93;100.00;102232.44;5032268;28;50832;-74
2023/01/05 16:00:27;;;;;;;;;0.00;0.00;;;;;14.46;100.00;102152.78;5030887;28;49840;-73
2023/01/05 16:02:53;;;;;;;;;1.00;1.00;;;;;14.61;100.00;102190.19;5032181;28;49902;-74
2023/01/05 16:05:26;;;;;;;;;2.75;2.00;;;;;14.74;100.00;102216.09;5030342;28;49851;-75
2023/01/05 16:08:07;;;;;;;;;1.00;0.00;;;;;14.69;100.00;102209.81;5030783;28;51832;-74
2023/01/05 16:10:48;;;;;;;;;6.00;1.25;;;;;14.56;100.00;102199.72;5032047;28;49857;-73
2023/01/05 16:13:33;;;;;;;;;0.00;0.00;;;;;14.71;100.00;102234.53;5031983;28;49856;-73
2023/01/05 16:16:03;;;;;;;;;3.25;0.00;;;;;14.43;100.00;102208.16;5013273;28;49865;-73
2023/01/05 16:18:36;;;;;;;;;1.25;1.00;;;;;14.41;100.00;102192.25;5031509;28;50447;-74
2023/01/05 16:21:33;;;;;;;;;0.00;0.00;;;;;14.23;100.00;102166.22;5032109;28;49828;-74
2023/01/05 16:24:21;;;;;;;;;1.00;0.00;;;;;14.33;100.00;102207.88;5032028;28;49682;-74
2023/01/05 16:26:46;;;;;;;;;2.50;2.25;;;;;14.49;100.00;102242.72;5028539;28;49638;-74
2023/01/05 16:29:19;;;;;;;;;2.00;2.00;;;;;14.19;100.00;102203.06;5031530;28;51379;-74
2023/01/05 16:31:54;;;;;;;;;1.00;1.00;;;;;14.38;100.00;102249.38;5031762;28;49886;-74
2023/01/05 16:34:26;;;;;;;;;0.00;0.00;;;;;14.12;100.00;102206.38;5031209;28;49622;-75
2023/01/05 16:36:58;;;;;;;;;1.00;1.00;;;;;14.13;100.00;102209.06;5031615;28;49717;-74
2023/01/05 16:39:24;;;;;;;;;2.00;2.00;;;;;13.85;100.00;102183.59;5031310;28;50966;-74
2023/01/05 16:44:57;;;;;;;;;1.00;1.00;;;;;13.54;100.00;102179.13;5027419;28;49757;-73
2023/01/05 16:47:39;;;;;;;;;0.00;0.00;;;;;13.99;100.00;102248.28;5031687;28;49928;-74
2023/01/05 16:50:35;;;;;;;;;0.00;0.00;;;;;13.92;100.00;102242.75;5030998;28;50000;-75
2023/01/05 16:53:14;;;;;;;;;1.00;1.00;;;;;13.94;100.00;102260.41;5030974;28;50092;-75
2023/01/05 16:55:40;;;;;;;;;0.00;0.00;;;;;13.63;100.00;102232.19;5031348;28;50114;-74
2023/01/05 16:58:33;;;;;;;;;0.00;0.00;;;;;13.86;100.00;102251.38;5031673;28;49821;-74
2023/01/05 17:01:07;;;;;;;;;0.50;0.50;;;;;13.85;100.00;102257.50;5030386;28;50751;-79
2023/01/05 17:03:33;;;;;;;;;1.00;0.00;;;;;13.43;100.00;102183.16;5032306;28;49928;-79
2023/01/05 17:06:00;;;;;;;;;1.00;1.00;;;;;13.67;100.00;102215.59;5029996;28;50378;-81
2023/01/05 17:08:30;;;;;;;;;0.00;0.00;;;;;13.79;100.00;102245.84;5031622;28;49788;-70
2023/01/05 17:10:57;;;;;;;;;1.00;1.00;;;;;13.79;100.00;102249.38;5030953;28;50010;-72
2023/01/05 17:13:40;;;;;;;;;0.00;0.00;;;;;13.82;100.00;102244.22;5031195;28;50103;-74
2023/01/05 17:16:08;;;;;;;;;2.00;2.00;;;;;13.62;100.00;102196.09;5030240;28;50029;-77
2023/01/05 17:18:34;;;;;;;;;1.75;1.75;;;;;13.82;100.00;102235.41;5035952;28;49939;-76
2023/01/05 17:20:59;;;;;;;;;2.00;2.00;;;;;13.86;100.00;102239.91;5031151;28;50693;-75
2023/01/05 17:23:32;;;;;;;;;2.50;2.50;;;;;13.70;100.00;102214.78;5029912;28;49675;-71
2023/01/05 17:26:02;;;;;;;;;0.00;0.00;;;;;13.88;100.00;102232.94;5029350;28;49641;-72
2023/01/05 17:28:27;;;;;;;;;1.25;1.25;;;;;13.86;100.00;102226.72;5026654;28;49851;-69
2023/01/05 17:30:53;;;;;;;;;0.75;0.75;;;;;13.72;100.00;102200.81;5027879;28;50015;-73
2023/01/05 17:33:18;;;;;;;;;1.50;1.50;;;;;13.70;100.00;102185.75;5027484;28;49878;-69
2023/01/05 17:35:46;;;;;;;;;0.00;0.00;;;;;13.73;100.00;102189.41;5029434;28;49999;-69
2023/01/05 17:38:12;;;;;;;;;0.50;0.50;;;;;13.81;100.00;102202.84;5026957;28;49880;-74
2023/01/05 17:40:38;;;;;;;;;0.25;0.25;;;;;13.91;100.00;102210.19;5027778;28;49839;-69
2023/01/05 17:43:04;;;;;;;;;1.25;1.25;;;;;13.82;100.00;102191.44;5028884;28;49769;-69
2023/01/05 17:45:30;;;;;;;;;1.00;1.00;;;;;13.87;100.00;102208.28;5025504;28;49781;-69
2023/01/05 17:47:55;;;;;;;;;2.00;2.00;;;;;13.46;100.00;102141.94;5042827;28;49578;-69
2023/01/05 17:50:30;;;;;;;;;2.75;2.00;;;;;13.80;100.00;102206.31;5028583;28;49869;-69
2023/01/05 17:52:57;;;;;;;;;2.75;2.75;;;;;13.79;100.00;102200.97;5025475;28;50066;-69
2023/01/05 17:55:23;;;;;;;;;3.00;3.00;;;;;13.66;100.00;102179.50;5029097;28;49843;-69
2023/01/05 17:57:49;;;;;;;;;2.00;2.00;;;;;13.75;100.00;102208.81;5021646;28;49966;-67
2023/01/05 18:00:17;;;;;;;;;2.00;2.00;;;;;13.75;100.00;102202.63;5028558;28;49769;-68
2023/01/05 18:02:43;;;;;;;;;2.00;2.00;;;;;13.66;100.00;102187.41;5028761;28;49685;-68
2023/01/05 18:05:10;;;;;;;;;2.00;2.00;;;;;13.72;100.00;102203.44;5028570;28;49828;-69
2023/01/05 18:07:36;;;;;;;;;2.00;2.00;;;;;13.68;100.00;102195.38;5027182;28;49535;-68
2023/01/05 18:10:04;;;;;;;;;1.00;1.00;;;;;13.77;100.00;102205.31;5025975;28;50343;-68
2023/01/05 18:12:29;;;;;;;;;1.75;1.75;;;;;13.68;100.00;102190.97;5025789;28;49881;-70
2023/01/05 18:14:55;;;;;;;;;1.50;1.50;;;;;13.77;100.00;102197.41;5028658;28;50026;-69
2023/01/05 18:17:21;;;;;;;;;2.25;2.25;;;;;13.79;100.00;102200.97;5029447;28;50610;-71
2023/01/05 18:19:46;;;;;;;;;2.75;2.75;;;;;13.72;100.00;102187.59;5029682;28;50914;-71
2023/01/05 18:22:12;;;;;;;;;1.75;1.75;;;;;13.74;100.00;102185.00;5029919;28;49787;-68
2023/01/05 18:24:38;;;;;;;;;2.25;2.25;;;;;13.79;100.00;102179.84;5030327;28;49745;-69
2023/01/05 18:27:05;;;;;;;;;2.00;2.00;;;;;13.77;100.00;102173.66;5030214;28;49728;-68
2023/01/05 18:29:35;;;;;;;;;3.25;3.25;;;;;13.72;100.00;102169.13;5028764;28;50844;-70
2023/01/05 18:32:01;;;;;;;;;1.75;1.75;;;;;13.71;100.00;102166.47;5029874;28;49763;-69
2023/01/05 18:34:27;;;;;;;;;2.25;2.00;;;;;13.64;100.00;102159.19;5029758;28;49804;-72